Pacific Titan — WCZ6844 — position and weather

sailwx.info

Track history (hours):
 
Tides and Currents Weather Stations Pressure Air Temp Water Temp Dewpoint Dewpoint Depression Visibility Wind Speed Wind Dir Waves Ship Positions

Pacific Titan

Owner: WESTERN TOWBOAT CO, SEATTLE, WA. More information available from US FCC via Universal Licensing System and Coast Guard Vessel Documentation Center.

Last reported at 2018-Feb-18 19:31 UTC. Time now 2018-Feb-18 19:59 UTC.
Position N 51°51' W 127°56'.

Type: Tow > 200 m length. MMSI: 338855000.

Date/timePositionNaut miles runAvg speedWind from/ knotsBaromVisibWave heightAir tempDewpointWater temp
2018-Feb-18 19:31N 51°51' W 127°56'4 7.6
2018-Feb-18 19:01N 51°47' W 127°56'5 9.1
2018-Feb-18 18:30N 51°43' W 127°55'4 8.9
2018-Feb-18 18:01N 51°38' W 127°54'4 8.4
2018-Feb-18 17:31N 51°34' W 127°53'4 7.9
2018-Feb-18 17:00N 51°30' W 127°52'4 8.0
2018-Feb-18 16:29N 51°26' W 127°52'4 8.3
2018-Feb-18 15:58N 51°22' W 127°53'4 7.3
2018-Feb-18 15:26N 51°18' W 127°53'3 6.9
2018-Feb-18 15:00N 51°15' W 127°52'3 6.4
2018-Feb-18 14:31N 51°12' W 127°51'3 6.3
2018-Feb-18 14:00N 51°09' W 127°50'4 7.4
2018-Feb-18 13:30N 51°06' W 127°46'4 7.5
2018-Feb-18 13:00N 51°04' W 127°41'4 7.8
2018-Feb-18 12:30N 51°01' W 127°37'4 7.2
2018-Feb-18 12:01N 50°59' W 127°33'4 8.3
2018-Feb-18 11:30N 50°56' W 127°27'4 8.8
2018-Feb-18 11:00N 50°53' W 127°22'5 9.5
2018-Feb-18 10:30N 50°50' W 127°17'5 9.5
2018-Feb-18 09:58N 50°46' W 127°11'5 9.6
2018-Feb-18 09:28N 50°44' W 127°04'4 9.3
2018-Feb-18 08:59N 50°42' W 126°58'4 8.6
2018-Feb-18 08:30N 50°40' W 126°52'5 9.0
2018-Feb-18 07:53N 50°37' W 126°45'4 9.6
2018-Feb-18 07:29N 50°34' W 126°41'6 9.2
2018-Feb-18 06:50N 50°31' W 126°34'3111.4
2018-Feb-18 04:10N 50°23' W 125°47'212.6
2018-Feb-18 03:58N 50°22' W 125°44'811.2
2018-Feb-18 03:18N 50°21' W 125°32'411.6
2018-Feb-18 03:00N 50°20' W 125°27'5 9.9
2018-Feb-18 02:30N 50°16' W 125°24'5 9.9
2018-Feb-18 02:01N 50°11' W 125°22'4 7.8
2018-Feb-18 01:30N 50°07' W 125°21'3 6.2
2018-Feb-18 01:01N 50°05' W 125°17'3 6.7
2018-Feb-18 00:31N 50°03' W 125°14'2 4.3
2018-Feb-18 00:01N 50°01' W 125°12'2 3.7
2018-Feb-17 23:30N 49°59' W 125°12'3 6.9
2018-Feb-17 23:01N 49°56' W 125°08'5 8.5
2018-Feb-17 22:28N 49°54' W 125°02'3 7.4
2018-Feb-17 22:00N 49°52' W 124°58'4 8.5
2018-Feb-17 21:30N 49°49' W 124°53'3 6.8
2018-Feb-17 21:01N 49°47' W 124°49'3 6.0
2018-Feb-17 20:30N 49°45' W 124°45'2 4.3
2018-Feb-17 20:00N 49°43' W 124°43'2 4.4
2018-Feb-17 19:30N 49°42' W 124°40'3 5.2
2018-Feb-17 19:00N 49°40' W 124°37'3 5.7
2018-Feb-17 18:30N 49°39' W 124°33'3 6.4
2018-Feb-17 18:00N 49°37' W 124°29'7 6.6
2018-Feb-17 16:58N 49°33' W 124°20'18 9.6
2018-Feb-17 15:06N 49°23' W 123°58'110.7
2018-Feb-17 14:58N 49°22' W 123°56'510.7
2018-Feb-17 14:29N 49°19' W 123°50'510.5
2018-Feb-17 14:00N 49°16' W 123°44'610.5
2018-Feb-17 13:29N 49°12' W 123°37'510.2
2018-Feb-17 13:00N 49°09' W 123°31'510.4
2018-Feb-17 12:30N 49°06' W 123°25'510.5
2018-Feb-17 12:00N 49°03' W 123°19'610.7
2018-Feb-17 11:28N 48°59' W 123°13'511.0
2018-Feb-17 11:01N 48°55' W 123°07'610.9
2018-Feb-17 10:27N 48°52' W 122°60'510.3
2018-Feb-17 09:58N 48°49' W 122°54'510.4
2018-Feb-17 09:27N 48°46' W 122°47'511.0
2018-Feb-17 09:00N 48°42' W 122°43'5 9.1
2018-Feb-17 08:31N 48°37' W 122°44'5 9.2
2018-Feb-17 08:00N 48°33' W 122°45'4 8.6
2018-Feb-17 07:30N 48°28' W 122°44'4 8.2
2018-Feb-17 07:00N 48°24' W 122°44'5 8.4
2018-Feb-17 06:27N 48°20' W 122°46'1910.6
2018-Feb-17 04:40N 48°02' W 122°37'313.2
2018-Feb-17 04:27N 47°59' W 122°35'512.3
2018-Feb-17 04:00N 47°56' W 122°29'611.6
2018-Feb-17 03:30N 47°50' W 122°27'510.7
2018-Feb-17 03:00N 47°45' W 122°26'611.5
2018-Feb-17 02:30N 47°39' W 122°27'5 9.4
2018-Feb-17 02:00N 47°36' W 122°22'2 3.9
2018-Feb-17 01:30N 47°34' W 122°21'0 0.7
2018-Feb-17 01:00N 47°34' W 122°21'1 1.2
2018-Feb-17 00:30N 47°33' W 122°21'0 0.0
2018-Feb-17 00:00N 47°33' W 122°21'0 0.5
2018-Feb-16 23:30N 47°33' W 122°21'4 8.0
2018-Feb-16 23:00N 47°37' W 122°24'4 7.8
2018-Feb-16 22:30N 47°41' W 122°25'1 2.5
2018-Feb-16 22:00N 47°40' W 122°23'1 2.3
2018-Feb-16 21:31N 47°39' W 122°22'0 0.0
2018-Feb-16 21:00N 47°39' W 122°22'0 0.0
2018-Feb-16 20:30N 47°39' W 122°22'0 0.0
2018-Feb-16 20:00N 47°39' W 122°22'0 0.0
2018-Feb-16 19:30N 47°39' W 122°22'0 0.0
2018-Feb-16 19:00N 47°39' W 122°22'0 0.0
2018-Feb-16 18:30N 47°39' W 122°22'0 0.1
2018-Feb-16 18:00N 47°39' W 122°22'0 0.1
2018-Feb-16 17:30N 47°39' W 122°22'0 0.0
2018-Feb-16 17:00N 47°39' W 122°22'0 0.0
2018-Feb-16 16:30N 47°39' W 122°22'0 0.0
2018-Feb-16 16:00N 47°39' W 122°22'0 0.0
2018-Feb-15 18:04N 47°39' W 122°22'0 0.0
2018-Feb-15 18:00N 47°39' W 122°22'0 0.0
2018-Feb-15 17:30N 47°39' W 122°22'  
2018-Feb-12 23:04N 47°39' W 122°22'0 0.8
2018-Feb-12 23:00N 47°39' W 122°22'2 3.3
2018-Feb-12 22:31N 47°40' W 122°24'2 3.9
2018-Feb-12 22:01N 47°38' W 122°26'510.1
2018-Feb-12 21:29N 47°34' W 122°21'1 1.8
2018-Feb-12 21:01N 47°33' W 122°21'2 4.4
2018-Feb-12 20:31N 47°36' W 122°22'0 0.4
2018-Feb-12 20:01N 47°36' W 122°22'0 0.5
2018-Feb-12 19:30N 47°36' W 122°22'4 7.4
2018-Feb-12 19:00N 47°38' W 122°26'510.4
2018-Feb-12 18:30N 47°43' W 122°27'510.9
2018-Feb-12 18:01N 47°49' W 122°28'510.3
2018-Feb-12 17:30N 47°54' W 122°30'5 9.5
2018-Feb-12 17:00N 47°57' W 122°34'10 9.3
2018-Feb-12 15:53N 48°07' W 122°41'5 8.6
2018-Feb-12 15:16N 48°10' W 122°46'3 9.2
2018-Feb-12 14:58N 48°13' W 122°48'510.6
2018-Feb-12 14:28N 48°18' W 122°48'510.8
2018-Feb-12 14:00N 48°23' W 122°45'510.6
2018-Feb-12 13:30N 48°28' W 122°45'510.3
2018-Feb-12 13:01N 48°33' W 122°45'5 9.2
2018-Feb-12 12:31N 48°38' W 122°44'4 8.7
2018-Feb-12 12:00N 48°42' W 122°45'4 8.4
2018-Feb-12 11:30N 48°46' W 122°49'4 8.9
2018-Feb-12 11:00N 48°48' W 122°55'5 9.2
2018-Feb-12 10:29N 48°50' W 123°01'4 8.2
2018-Feb-12 10:00N 48°52' W 123°06'4 8.1
2018-Feb-12 09:31N 48°55' W 123°10'4 8.3
2018-Feb-12 09:00N 48°58' W 123°15'4 8.5
2018-Feb-12 08:31N 49°00' W 123°20'5 9.0
2018-Feb-12 08:00N 49°04' W 123°25'5 8.9
2018-Feb-12 07:26N 49°07' W 123°30'4 9.0
2018-Feb-12 07:01N 49°10' W 123°35'20 9.9
2018-Feb-12 05:01N 49°22' W 123°58'210.0
2018-Feb-12 04:47N 49°24' W 124°01'1510.3
2018-Feb-12 03:21N 49°33' W 124°19'410.3
2018-Feb-12 02:58N 49°35' W 124°24'510.3
2018-Feb-12 02:27N 49°38' W 124°31'510.6
2018-Feb-12 02:00N 49°41' W 124°37'510.6
2018-Feb-12 01:31N 49°43' W 124°44'5 9.8
2018-Feb-12 01:00N 49°46' W 124°50'5 9.1
2018-Feb-12 00:30N 49°49' W 124°56'510.2
2018-Feb-12 00:00N 49°52' W 125°01'510.3
2018-Feb-11 23:31N 49°56' W 125°07'510.3
2018-Feb-11 23:01N 49°60' W 125°12'510.7
2018-Feb-11 22:30N 50°05' W 125°16'510.5
2018-Feb-11 22:00N 50°08' W 125°21'510.6
2018-Feb-11 21:30N 50°14' W 125°23'610.5
2018-Feb-11 20:59N 50°19' W 125°25'3510.4
2018-Feb-11 17:37N 50°29' W 126°17'310.0
2018-Feb-11 17:22N 50°30' W 126°21'4 9.7
2018-Feb-11 16:58N 50°30' W 126°27'5 9.4
2018-Feb-11 16:23N 50°30' W 126°36'4 9.3
2018-Feb-11 15:56N 50°33' W 126°41'4 8.7
2018-Feb-11 15:30N 50°36' W 126°44'610.1
2018-Feb-11 14:56N 50°40' W 126°51'5 9.2
2018-Feb-11 14:23N 50°42' W 126°58'410.2
2018-Feb-11 14:00N 50°44' W 127°04'510.0
2018-Feb-11 13:30N 50°47' W 127°10'5 9.8
2018-Feb-11 13:00N 50°50' W 127°16'5 9.7
2018-Feb-11 12:30N 50°53' W 127°22'5 9.5
2018-Feb-11 12:00N 50°56' W 127°27'5 9.7
2018-Feb-11 11:30N 50°59' W 127°34'5 9.3
2018-Feb-11 11:00N 51°02' W 127°38'5 9.8
2018-Feb-11 10:29N 51°06' W 127°44'5 9.5
2018-Feb-11 10:00N 51°09' W 127°50'5 9.6
2018-Feb-11 09:30N 51°13' W 127°52'510.1
2018-Feb-11 09:00N 51°18' W 127°53'510.3
2018-Feb-11 08:30N 51°23' W 127°53'510.3
2018-Feb-11 08:00N 51°29' W 127°51'510.5
2018-Feb-11 07:31N 51°34' W 127°53'510.6
2018-Feb-11 07:00N 51°39' W 127°54'510.1
2018-Feb-11 06:30N 51°44' W 127°55'510.4
2018-Feb-11 06:00N 51°49' W 127°56'510.7
2018-Feb-11 05:31N 51°54' W 127°56'611.0
2018-Feb-11 05:00N 51°60' W 127°56'510.5
2018-Feb-11 04:30N 52°05' W 127°54'610.5
2018-Feb-11 03:56N 52°11' W 127°53'8 9.8
2018-Feb-11 03:09N 52°18' W 127°57'210.1
2018-Feb-11 02:56N 52°18' W 128°00'4 9.2
2018-Feb-11 02:30N 52°17' W 128°07'5 9.0
2018-Feb-11 02:00N 52°16' W 128°14'4 8.2
2018-Feb-11 01:28N 52°15' W 128°21'4 9.5
2018-Feb-11 01:00N 52°16' W 128°28'5 9.6
2018-Feb-11 00:30N 52°21' W 128°31'510.2
2018-Feb-11 00:00N 52°26' W 128°29'89 8.9
2018-Feb-10 14:01N 53°41' W 129°47'1 9.7
2018-Feb-10 13:54N 53°42' W 129°48'5 9.5
2018-Feb-10 13:23N 53°46' W 129°54'4 9.4
2018-Feb-10 13:00N 53°48' W 129°58'5 9.7
2018-Feb-10 12:30N 53°52' W 130°04'4 9.1
2018-Feb-10 12:00N 53°55' W 130°09'5 9.5
2018-Feb-10 11:31N 53°59' W 130°13'5 9.9
2018-Feb-10 11:00N 54°04' W 130°16'4 9.0
2018-Feb-10 10:30N 54°06' W 130°22'4 8.4
2018-Feb-10 10:00N 54°10' W 130°27'5 9.3
2018-Feb-10 09:30N 54°14' W 130°30'5 9.2
2018-Feb-10 09:00N 54°18' W 130°34'5 9.3
2018-Feb-10 08:30N 54°22' W 130°37'510.3
2018-Feb-10 08:00N 54°27' W 130°40'510.3
2018-Feb-10 07:30N 54°32' W 130°43'510.2
2018-Feb-10 06:59N 54°37' W 130°44'5 9.4
2018-Feb-10 06:27N 54°41' W 130°49'  
Track history (hours):
 
Tides and Currents Weather Stations Pressure Air Temp Water Temp Dewpoint Dewpoint Depression Visibility Wind Speed Wind Dir Waves Ship Positions

Pacific Titan

Owner: WESTERN TOWBOAT CO, SEATTLE, WA. More information available from US FCC via Universal Licensing System and Coast Guard Vessel Documentation Center.

Last reported at 2018-Feb-18 19:31 UTC. Time now 2018-Feb-18 19:59 UTC.
Position N 51°51' W 127°56'.

Type: Tow > 200 m length. MMSI: 338855000.

Date/timePositionNaut miles runAvg speedWind from/ knotsBaromVisibWave heightAir tempDewpointWater temp
2018-Feb-18 19:31N 51°51' W 127°56'4 7.6
2018-Feb-18 19:01N 51°47' W 127°56'5 9.1
2018-Feb-18 18:30N 51°43' W 127°55'4 8.9
2018-Feb-18 18:01N 51°38' W 127°54'4 8.4
2018-Feb-18 17:31N 51°34' W 127°53'4 7.9
2018-Feb-18 17:00N 51°30' W 127°52'4 8.0
2018-Feb-18 16:29N 51°26' W 127°52'4 8.3
2018-Feb-18 15:58N 51°22' W 127°53'4 7.3
2018-Feb-18 15:26N 51°18' W 127°53'3 6.9
2018-Feb-18 15:00N 51°15' W 127°52'3 6.4
2018-Feb-18 14:31N 51°12' W 127°51'3 6.3
2018-Feb-18 14:00N 51°09' W 127°50'4 7.4
2018-Feb-18 13:30N 51°06' W 127°46'4 7.5
2018-Feb-18 13:00N 51°04' W 127°41'4 7.8
2018-Feb-18 12:30N 51°01' W 127°37'4 7.2
2018-Feb-18 12:01N 50°59' W 127°33'4 8.3
2018-Feb-18 11:30N 50°56' W 127°27'4 8.8
2018-Feb-18 11:00N 50°53' W 127°22'5 9.5
2018-Feb-18 10:30N 50°50' W 127°17'5 9.5
2018-Feb-18 09:58N 50°46' W 127°11'5 9.6
2018-Feb-18 09:28N 50°44' W 127°04'4 9.3
2018-Feb-18 08:59N 50°42' W 126°58'4 8.6
2018-Feb-18 08:30N 50°40' W 126°52'5 9.0
2018-Feb-18 07:53N 50°37' W 126°45'4 9.6
2018-Feb-18 07:29N 50°34' W 126°41'6 9.2
2018-Feb-18 06:50N 50°31' W 126°34'3111.4
2018-Feb-18 04:10N 50°23' W 125°47'212.6
2018-Feb-18 03:58N 50°22' W 125°44'811.2
2018-Feb-18 03:18N 50°21' W 125°32'411.6
2018-Feb-18 03:00N 50°20' W 125°27'5 9.9
2018-Feb-18 02:30N 50°16' W 125°24'5 9.9
2018-Feb-18 02:01N 50°11' W 125°22'4 7.8
2018-Feb-18 01:30N 50°07' W 125°21'3 6.2
2018-Feb-18 01:01N 50°05' W 125°17'3 6.7
2018-Feb-18 00:31N 50°03' W 125°14'2 4.3
2018-Feb-18 00:01N 50°01' W 125°12'2 3.7
2018-Feb-17 23:30N 49°59' W 125°12'3 6.9
2018-Feb-17 23:01N 49°56' W 125°08'5 8.5
2018-Feb-17 22:28N 49°54' W 125°02'3 7.4
2018-Feb-17 22:00N 49°52' W 124°58'4 8.5
2018-Feb-17 21:30N 49°49' W 124°53'3 6.8
2018-Feb-17 21:01N 49°47' W 124°49'3 6.0
2018-Feb-17 20:30N 49°45' W 124°45'2 4.3
2018-Feb-17 20:00N 49°43' W 124°43'2 4.4
2018-Feb-17 19:30N 49°42' W 124°40'3 5.2
2018-Feb-17 19:00N 49°40' W 124°37'3 5.7
2018-Feb-17 18:30N 49°39' W 124°33'3 6.4
2018-Feb-17 18:00N 49°37' W 124°29'7 6.6
2018-Feb-17 16:58N 49°33' W 124°20'18 9.6
2018-Feb-17 15:06N 49°23' W 123°58'110.7
2018-Feb-17 14:58N 49°22' W 123°56'510.7
2018-Feb-17 14:29N 49°19' W 123°50'510.5
2018-Feb-17 14:00N 49°16' W 123°44'610.5
2018-Feb-17 13:29N 49°12' W 123°37'510.2
2018-Feb-17 13:00N 49°09' W 123°31'510.4
2018-Feb-17 12:30N 49°06' W 123°25'510.5
2018-Feb-17 12:00N 49°03' W 123°19'610.7
2018-Feb-17 11:28N 48°59' W 123°13'511.0
2018-Feb-17 11:01N 48°55' W 123°07'610.9
2018-Feb-17 10:27N 48°52' W 122°60'510.3
2018-Feb-17 09:58N 48°49' W 122°54'510.4
2018-Feb-17 09:27N 48°46' W 122°47'511.0
2018-Feb-17 09:00N 48°42' W 122°43'5 9.1
2018-Feb-17 08:31N 48°37' W 122°44'5 9.2
2018-Feb-17 08:00N 48°33' W 122°45'4 8.6
2018-Feb-17 07:30N 48°28' W 122°44'4 8.2
2018-Feb-17 07:00N 48°24' W 122°44'5 8.4
2018-Feb-17 06:27N 48°20' W 122°46'1910.6
2018-Feb-17 04:40N 48°02' W 122°37'313.2
2018-Feb-17 04:27N 47°59' W 122°35'512.3
2018-Feb-17 04:00N 47°56' W 122°29'611.6
2018-Feb-17 03:30N 47°50' W 122°27'510.7
2018-Feb-17 03:00N 47°45' W 122°26'611.5
2018-Feb-17 02:30N 47°39' W 122°27'5 9.4
2018-Feb-17 02:00N 47°36' W 122°22'2 3.9
2018-Feb-17 01:30N 47°34' W 122°21'0 0.7
2018-Feb-17 01:00N 47°34' W 122°21'1 1.2
2018-Feb-17 00:30N 47°33' W 122°21'0 0.0
2018-Feb-17 00:00N 47°33' W 122°21'0 0.5
2018-Feb-16 23:30N 47°33' W 122°21'4 8.0
2018-Feb-16 23:00N 47°37' W 122°24'4 7.8
2018-Feb-16 22:30N 47°41' W 122°25'1 2.5
2018-Feb-16 22:00N 47°40' W 122°23'1 2.3
2018-Feb-16 21:31N 47°39' W 122°22'0 0.0
2018-Feb-16 21:00N 47°39' W 122°22'0 0.0
2018-Feb-16 20:30N 47°39' W 122°22'0 0.0
2018-Feb-16 20:00N 47°39' W 122°22'0 0.0
2018-Feb-16 19:30N 47°39' W 122°22'0 0.0
2018-Feb-16 19:00N 47°39' W 122°22'0 0.0
2018-Feb-16 18:30N 47°39' W 122°22'0 0.1
2018-Feb-16 18:00N 47°39' W 122°22'0 0.1
2018-Feb-16 17:30N 47°39' W 122°22'0 0.0
2018-Feb-16 17:00N 47°39' W 122°22'0 0.0
2018-Feb-16 16:30N 47°39' W 122°22'0 0.0
2018-Feb-16 16:00N 47°39' W 122°22'0 0.0
2018-Feb-15 18:04N 47°39' W 122°22'0 0.0
2018-Feb-15 18:00N 47°39' W 122°22'0 0.0
2018-Feb-15 17:30N 47°39' W 122°22'  
2018-Feb-12 23:04N 47°39' W 122°22'0 0.8
2018-Feb-12 23:00N 47°39' W 122°22'2 3.3
2018-Feb-12 22:31N 47°40' W 122°24'2 3.9
2018-Feb-12 22:01N 47°38' W 122°26'510.1
2018-Feb-12 21:29N 47°34' W 122°21'1 1.8
2018-Feb-12 21:01N 47°33' W 122°21'2 4.4
2018-Feb-12 20:31N 47°36' W 122°22'0 0.4
2018-Feb-12 20:01N 47°36' W 122°22'0 0.5
2018-Feb-12 19:30N 47°36' W 122°22'4 7.4
2018-Feb-12 19:00N 47°38' W 122°26'510.4
2018-Feb-12 18:30N 47°43' W 122°27'510.9
2018-Feb-12 18:01N 47°49' W 122°28'510.3
2018-Feb-12 17:30N 47°54' W 122°30'5 9.5
2018-Feb-12 17:00N 47°57' W 122°34'10 9.3
2018-Feb-12 15:53N 48°07' W 122°41'5 8.6
2018-Feb-12 15:16N 48°10' W 122°46'3 9.2
2018-Feb-12 14:58N 48°13' W 122°48'510.6
2018-Feb-12 14:28N 48°18' W 122°48'510.8
2018-Feb-12 14:00N 48°23' W 122°45'510.6
2018-Feb-12 13:30N 48°28' W 122°45'510.3
2018-Feb-12 13:01N 48°33' W 122°45'5 9.2
2018-Feb-12 12:31N 48°38' W 122°44'4 8.7
2018-Feb-12 12:00N 48°42' W 122°45'4 8.4
2018-Feb-12 11:30N 48°46' W 122°49'4 8.9
2018-Feb-12 11:00N 48°48' W 122°55'5 9.2
2018-Feb-12 10:29N 48°50' W 123°01'4 8.2
2018-Feb-12 10:00N 48°52' W 123°06'4 8.1
2018-Feb-12 09:31N 48°55' W 123°10'4 8.3
2018-Feb-12 09:00N 48°58' W 123°15'4 8.5
2018-Feb-12 08:31N 49°00' W 123°20'5 9.0
2018-Feb-12 08:00N 49°04' W 123°25'5 8.9
2018-Feb-12 07:26N 49°07' W 123°30'4 9.0
2018-Feb-12 07:01N 49°10' W 123°35'20 9.9
2018-Feb-12 05:01N 49°22' W 123°58'210.0
2018-Feb-12 04:47N 49°24' W 124°01'1510.3
2018-Feb-12 03:21N 49°33' W 124°19'410.3
2018-Feb-12 02:58N 49°35' W 124°24'510.3
2018-Feb-12 02:27N 49°38' W 124°31'510.6
2018-Feb-12 02:00N 49°41' W 124°37'510.6
2018-Feb-12 01:31N 49°43' W 124°44'5 9.8
2018-Feb-12 01:00N 49°46' W 124°50'5 9.1
2018-Feb-12 00:30N 49°49' W 124°56'510.2
2018-Feb-12 00:00N 49°52' W 125°01'510.3
2018-Feb-11 23:31N 49°56' W 125°07'510.3
2018-Feb-11 23:01N 49°60' W 125°12'510.7
2018-Feb-11 22:30N 50°05' W 125°16'510.5
2018-Feb-11 22:00N 50°08' W 125°21'510.6
2018-Feb-11 21:30N 50°14' W 125°23'610.5
2018-Feb-11 20:59N 50°19' W 125°25'3510.4
2018-Feb-11 17:37N 50°29' W 126°17'310.0
2018-Feb-11 17:22N 50°30' W 126°21'4 9.7
2018-Feb-11 16:58N 50°30' W 126°27'5 9.4
2018-Feb-11 16:23N 50°30' W 126°36'4 9.3
2018-Feb-11 15:56N 50°33' W 126°41'4 8.7
2018-Feb-11 15:30N 50°36' W 126°44'610.1
2018-Feb-11 14:56N 50°40' W 126°51'5 9.2
2018-Feb-11 14:23N 50°42' W 126°58'410.2
2018-Feb-11 14:00N 50°44' W 127°04'510.0
2018-Feb-11 13:30N 50°47' W 127°10'5 9.8
2018-Feb-11 13:00N 50°50' W 127°16'5 9.7
2018-Feb-11 12:30N 50°53' W 127°22'5 9.5
2018-Feb-11 12:00N 50°56' W 127°27'5 9.7
2018-Feb-11 11:30N 50°59' W 127°34'5 9.3
2018-Feb-11 11:00N 51°02' W 127°38'5 9.8
2018-Feb-11 10:29N 51°06' W 127°44'5 9.5
2018-Feb-11 10:00N 51°09' W 127°50'5 9.6
2018-Feb-11 09:30N 51°13' W 127°52'510.1
2018-Feb-11 09:00N 51°18' W 127°53'510.3
2018-Feb-11 08:30N 51°23' W 127°53'510.3
2018-Feb-11 08:00N 51°29' W 127°51'510.5
2018-Feb-11 07:31N 51°34' W 127°53'510.6
2018-Feb-11 07:00N 51°39' W 127°54'510.1
2018-Feb-11 06:30N 51°44' W 127°55'510.4
2018-Feb-11 06:00N 51°49' W 127°56'510.7
2018-Feb-11 05:31N 51°54' W 127°56'611.0
2018-Feb-11 05:00N 51°60' W 127°56'510.5
2018-Feb-11 04:30N 52°05' W 127°54'610.5
2018-Feb-11 03:56N 52°11' W 127°53'8 9.8
2018-Feb-11 03:09N 52°18' W 127°57'210.1
2018-Feb-11 02:56N 52°18' W 128°00'4 9.2
2018-Feb-11 02:30N 52°17' W 128°07'5 9.0
2018-Feb-11 02:00N 52°16' W 128°14'4 8.2
2018-Feb-11 01:28N 52°15' W 128°21'4 9.5
2018-Feb-11 01:00N 52°16' W 128°28'5 9.6
2018-Feb-11 00:30N 52°21' W 128°31'510.2
2018-Feb-11 00:00N 52°26' W 128°29'89 8.9
2018-Feb-10 14:01N 53°41' W 129°47'1 9.7
2018-Feb-10 13:54N 53°42' W 129°48'5 9.5
2018-Feb-10 13:23N 53°46' W 129°54'4 9.4
2018-Feb-10 13:00N 53°48' W 129°58'5 9.7
2018-Feb-10 12:30N 53°52' W 130°04'4 9.1
2018-Feb-10 12:00N 53°55' W 130°09'5 9.5
2018-Feb-10 11:31N 53°59' W 130°13'5 9.9
2018-Feb-10 11:00N 54°04' W 130°16'4 9.0
2018-Feb-10 10:30N 54°06' W 130°22'4 8.4
2018-Feb-10 10:00N 54°10' W 130°27'5 9.3
2018-Feb-10 09:30N 54°14' W 130°30'5 9.2
2018-Feb-10 09:00N 54°18' W 130°34'5 9.3
2018-Feb-10 08:30N 54°22' W 130°37'510.3
2018-Feb-10 08:00N 54°27' W 130°40'510.3
2018-Feb-10 07:30N 54°32' W 130°43'510.2
2018-Feb-10 06:59N 54°37' W 130°44'5 9.4
2018-Feb-10 06:27N 54°41' W 130°49'  

Dump ship's entire track history